地図

経路データ

SID SEASON NUMBER BASIN SUBBASIN NAME ISO_TIME NATURE LAT LON WMO_WIND WMO_PRES WMO_AGENCY TRACK_TYPE DIST2LAND LANDFALL IFLAG USA_AGENCY USA_ATCF_ID USA_LAT USA_LON USA_RECORD USA_STATUS USA_WIND USA_PRES USA_SSHS USA_R34_NE USA_R34_SE USA_R34_SW USA_R34_NW USA_R50_NE USA_R50_SE USA_R50_SW USA_R50_NW USA_R64_NE USA_R64_SE USA_R64_SW USA_R64_NW USA_POCI USA_ROCI USA_RMW USA_EYE TOKYO_LAT TOKYO_LON TOKYO_GRADE TOKYO_WIND TOKYO_PRES TOKYO_R50_DIR TOKYO_R50_LONG TOKYO_R50_SHORT TOKYO_R30_DIR TOKYO_R30_LONG TOKYO_R30_SHORT TOKYO_LAND CMA_LAT CMA_LON CMA_CAT CMA_WIND CMA_PRES HKO_LAT HKO_LON HKO_CAT HKO_WIND HKO_PRES NEWDELHI_LAT NEWDELHI_LON NEWDELHI_GRADE NEWDELHI_WIND NEWDELHI_PRES NEWDELHI_CI NEWDELHI_DP NEWDELHI_POCI REUNION_LAT REUNION_LON REUNION_TYPE REUNION_WIND REUNION_PRES REUNION_TNUM REUNION_CI REUNION_RMW REUNION_R34_NE REUNION_R34_SE REUNION_R34_SW REUNION_R34_NW REUNION_R50_NE REUNION_R50_SE REUNION_R50_SW REUNION_R50_NW REUNION_R64_NE REUNION_R64_SE REUNION_R64_SW REUNION_R64_NW BOM_LAT BOM_LON BOM_TYPE BOM_WIND BOM_PRES BOM_TNUM BOM_CI BOM_RMW BOM_R34_NE BOM_R34_SE BOM_R34_SW BOM_R34_NW BOM_R50_NE BOM_R50_SE BOM_R50_SW BOM_R50_NW BOM_R64_NE BOM_R64_SE BOM_R64_SW BOM_R64_NW BOM_ROCI BOM_POCI BOM_EYE BOM_POS_METHOD BOM_PRES_METHOD NADI_LAT NADI_LON NADI_CAT NADI_WIND NADI_PRES WELLINGTON_LAT WELLINGTON_LON WELLINGTON_WIND WELLINGTON_PRES DS824_LAT DS824_LON DS824_STAGE DS824_WIND DS824_PRES TD9636_LAT TD9636_LON TD9636_STAGE TD9636_WIND TD9636_PRES TD9635_LAT TD9635_LON TD9635_WIND TD9635_PRES TD9635_ROCI NEUMANN_LAT NEUMANN_LON NEUMANN_CLASS NEUMANN_WIND NEUMANN_PRES MLC_LAT MLC_LON MLC_CLASS MLC_WIND MLC_PRES USA_GUST BOM_GUST BOM_GUST_PER REUNION_GUST REUNION_GUST_PER USA_SEAHGT USA_SEARAD_NE USA_SEARAD_SE USA_SEARAD_SW USA_SEARAD_NW STORM_SPEED STORM_DIR
1919235N16135 1919 26 WP MM NOT_NAMED 1919-08-22 21:00:00 NR 16.0000 134.600 main 1069 991 __________O___ -1 16.0000 134.600 7 21 293
1919235N16135 1919 26 WP MM NOT_NAMED 1919-08-23 00:00:00 NR 16.4100 133.583 main 991 930 __________P___ -1 16.4100 133.583 7 21 293
1919235N16135 1919 26 WP MM NOT_NAMED 1919-08-23 03:00:00 NR 16.7937 132.620 main 921 870 __________P___ -1 16.7937 132.620 7 19 293
1919235N16135 1919 26 WP MM NOT_NAMED 1919-08-23 06:00:00 NR 17.1303 131.772 main 870 817 __________P___ -1 17.1303 131.772 7 16 293
1919235N16135 1919 26 WP MM NOT_NAMED 1919-08-23 09:00:00 NR 17.4000 131.100 main 817 785 __________O___ -1 17.4000 131.100 7 12 293
1919235N16135 1919 26 WP MM NOT_NAMED 1919-08-23 12:00:00 NR 17.5944 130.641 main 782 770 __________P___ -1 17.5944 130.641 7 8 296
1919235N16135 1919 26 WP MM NOT_NAMED 1919-08-23 15:00:00 NR 17.7470 130.340 main 761 756 __________P___ -1 17.7470 130.340 7 6 302
1919235N16135 1919 26 WP MM NOT_NAMED 1919-08-23 18:00:00 NR 17.9013 130.119 main 756 752 __________P___ -1 17.9013 130.119 7 5 310
1919235N16135 1919 26 WP MM NOT_NAMED 1919-08-23 21:00:00 NR 18.1000 129.900 main 752 742 __________O___ -1 18.1000 129.900 7 7 315
1919235N16135 1919 26 WP MM NOT_NAMED 1919-08-24 00:00:00 NR 18.3785 129.616 main 749 738 __________P___ -1 18.3785 129.616 7 8 317
1919235N16135 1919 26 WP MM NOT_NAMED 1919-08-24 03:00:00 NR 18.7085 129.310 main 738 708 __________P___ -1 18.7085 129.310 7 10 318
1919235N16135 1919 26 WP MM NOT_NAMED 1919-08-24 06:00:00 NR 19.0844 128.950 main 699 663 __________P___ -1 19.0844 128.950 7 11 316
1919235N16135 1919 26 WP MM NOT_NAMED 1919-08-24 09:00:00 NR 19.5000 128.500 main 663 611 __________O___ -1 19.5000 128.500 7 13 311
1919235N16135 1919 26 WP MM NOT_NAMED 1919-08-24 12:00:00 NR 19.9527 127.888 main 614 560 __________P___ -1 19.9527 127.888 7 16 307
1919235N16135 1919 26 WP MM NOT_NAMED 1919-08-24 15:00:00 NR 20.4371 127.190 main 560 521 __________P___ -1 20.4371 127.190 7 17 306
1919235N16135 1919 26 WP MM NOT_NAMED 1919-08-24 18:00:00 NR 20.9277 126.472 main 521 490 __________P___ -1 20.9277 126.472 7 16 307
1919235N16135 1919 26 WP MM NOT_NAMED 1919-08-24 21:00:00 NR 21.4000 125.800 main 490 439 __________O___ -1 21.4000 125.800 7 13 309
1919235N16135 1919 26 WP MM NOT_NAMED 1919-08-25 00:00:00 NR 21.7607 125.362 main 435 385 __________P___ -1 21.7607 125.362 7 11 313
1919235N16135 1919 26 WP MM NOT_NAMED 1919-08-25 03:00:00 NR 22.1113 124.967 main 385 324 __________P___ -1 22.1113 124.967 7 11 313
1919235N16135 1919 26 WP MM NOT_NAMED 1919-08-25 06:00:00 NR 22.5065 124.513 main 324 255 __________P___ -1 22.5065 124.513 7 13 312
1919235N16135 1919 26 WP MM NOT_NAMED 1919-08-25 09:00:00 NR 23.0000 123.900 main 255 142 __________O___ -1 23.0000 123.900 7 19 309
1919235N16135 1919 26 WP MM NOT_NAMED 1919-08-25 12:00:00 NR 23.7372 122.890 main 135 0 __________P___ -1 23.7372 122.890 7 25 308
1919235N16135 1919 26 WP MM NOT_NAMED 1919-08-25 15:00:00 NR 24.5551 121.717 main 0 0 __________P___ -1 24.5551 121.717 7 27 307
1919235N16135 1919 26 WP MM NOT_NAMED 1919-08-25 18:00:00 NR 25.3442 120.533 main 60 0 __________P___ -1 25.3442 120.533 7 25 306
1919235N16135 1919 26 WP MM NOT_NAMED 1919-08-25 21:00:00 NR 26.0000 119.500 main 0 0 __________O___ -1 26.0000 119.500 7 18 304
1919235N16135 1919 26 WP MM NOT_NAMED 1919-08-26 00:00:00 NR 26.3760 118.845 main 0 0 __________P___ -1 26.3760 118.845 7 12 301
1919235N16135 1919 26 WP MM NOT_NAMED 1919-08-26 03:00:00 NR 26.6207 118.368 main 0 0 __________P___ -1 26.6207 118.368 7 9 299
1919235N16135 1919 26 WP MM NOT_NAMED 1919-08-26 06:00:00 NR 26.8054 117.982 main 0 0 __________P___ -1 26.8054 117.982 7 8 299
1919235N16135 1919 26 WP MM NOT_NAMED 1919-08-26 09:00:00 NR 27.0000 117.600 main 0 0 __________O___ -1 27.0000 117.600 7 10 302
1919235N16135 1919 26 WP MM NOT_NAMED 1919-08-26 12:00:00 NR 27.3284 117.050 main 0 0 __________P___ -1 27.3284 117.050 7 12 304
1919235N16135 1919 26 WP MM NOT_NAMED 1919-08-26 15:00:00 NR 27.6734 116.492 main 0 0 __________P___ -1 27.6734 116.492 7 12 305
1919235N16135 1919 26 WP MM NOT_NAMED 1919-08-26 18:00:00 NR 28.0066 115.963 main 0 0 __________P___ -1 28.0066 115.963 7 11 306
1919235N16135 1919 26 WP MM NOT_NAMED 1919-08-26 21:00:00 NR 28.3000 115.500 main 0 0 __________O___ -1 28.3000 115.500 7 9 305
1919235N16135 1919 26 WP MM NOT_NAMED 1919-08-27 00:00:00 NR 28.5170 115.143 main 0 0 __________P___ -1 28.5170 115.143 7 7 305
1919235N16135 1919 26 WP MM NOT_NAMED 1919-08-27 03:00:00 NR 28.6937 114.858 main 0 0 __________P___ -1 28.6937 114.858 7 6 306
1919235N16135 1919 26 WP MM NOT_NAMED 1919-08-27 06:00:00 NR 28.8486 114.619 main 0 0 __________P___ -1 28.8486 114.619 7 5 307
1919235N16135 1919 26 WP MM NOT_NAMED 1919-08-27 09:00:00 NR 29.0000 114.400 main 0 0 __________O___ -1 29.0000 114.400 7 5 294
1919235N16135 1919 26 WP MM NOT_NAMED 1919-08-27 12:00:00 NR 29.0493 114.100 main 0 0 __________P___ -1 29.0493 114.100 7 5 283
1919235N16135 1919 26 WP MM NOT_NAMED 1919-08-27 15:00:00 NR 29.1179 113.824 main 0 0 __________P___ -1 29.1179 113.824 7 5 301
1919235N16135 1919 26 WP MM NOT_NAMED 1919-08-27 18:00:00 NR 29.3024 113.611 main 0 0 __________P___ -1 29.3024 113.611 7 6 334
1919235N16135 1919 26 WP MM NOT_NAMED 1919-08-27 21:00:00 NR 29.7000 113.500 main 0 0 __________O___ -1 29.7000 113.500 7 12 352
1919235N16135 1919 26 WP MM NOT_NAMED 1919-08-28 00:00:00 NR 30.4739 113.436 main 0 0 __________P___ -1 30.4739 113.436 7 18 359
1919235N16135 1919 26 WP MM NOT_NAMED 1919-08-28 03:00:00 NR 31.4542 113.491 main 0 0 __________P___ -1 31.4542 113.491 7 21 6
1919235N16135 1919 26 WP MM NOT_NAMED 1919-08-28 06:00:00 NR 32.5075 113.700 main 0 0 __________P___ -1 32.5075 113.700 7 21 14
1919235N16135 1919 26 WP MM NOT_NAMED 1919-08-28 09:00:00 NR 33.5000 114.100 main 0 0 __________O___ -1 33.5000 114.100 7 19 23
1919235N16135 1919 26 WP MM NOT_NAMED 1919-08-28 12:00:00 NR 34.2213 114.586 main 0 0 __________P___ -1 34.2213 114.586 7 17 36
1919235N16135 1919 26 WP MM NOT_NAMED 1919-08-28 15:00:00 NR 34.8627 115.279 main 0 0 __________P___ -1 34.8627 115.279 7 18 47
1919235N16135 1919 26 WP MM NOT_NAMED 1919-08-28 18:00:00 NR 35.4732 116.207 main 0 0 __________P___ -1 35.4732 116.207 7 21 54
1919235N16135 1919 26 WP MM NOT_NAMED 1919-08-28 21:00:00 NR 36.1000 117.400 main 0 0 __________O___ -1 36.1000 117.400 7 26 57
1919235N16135 1919 26 WP MM NOT_NAMED 1919-08-29 00:00:00 NR 36.8809 118.908 main 0 0 __________P___ -1 36.8809 118.908 7 31 59
1919235N16135 1919 26 WP MM NOT_NAMED 1919-08-29 03:00:00 NR 37.6566 120.683 main 0 0 __________P___ -1 37.6566 120.683 7 33 63
1919235N16135 1919 26 WP MM NOT_NAMED 1919-08-29 06:00:00 NR 38.3520 122.595 main 90 60 __________P___ -1 38.3520 122.595 7 32 67
1919235N16135 1919 26 WP MM NOT_NAMED 1919-08-29 09:00:00 NR 38.9000 124.500 main 51 0 __________O___ -1 38.9000 124.500 7 29 73
1919235N16135 1919 26 WP MM NOT_NAMED 1919-08-29 12:00:00 NR 39.2104 126.141 main 0 0 __________P___ -1 39.2104 126.141 7 25 79
1919235N16135 1919 26 WP MM NOT_NAMED 1919-08-29 15:00:00 NR 39.3857 127.733 main 14 14 __________P___ -1 39.3857 127.733 7 25 83
1919235N16135 1919 26 WP MM NOT_NAMED 1919-08-29 18:00:00 NR 39.4940 129.332 main 98 98 __________P___ -1 39.4940 129.332 7 25 85
1919235N16135 1919 26 WP MM NOT_NAMED 1919-08-29 21:00:00 NR 39.6000 131.000 main 173 173 __________O___ -1 39.6000 131.000 7 28 83
1919235N16135 1919 26 WP MM NOT_NAMED 1919-08-30 00:00:00 NR 39.8118 132.902 main 292 292 __________P___ -1 39.8118 132.902 7 30 82
1919235N16135 1919 26 WP MM NOT_NAMED 1919-08-30 03:00:00 NR 40.0172 134.879 main 327 256 __________P___ -1 40.0172 134.879 7 30 83
1919235N16135 1919 26 WP MM NOT_NAMED 1919-08-30 06:00:00 NR 40.1875 136.842 main 248 103 __________P___ -1 40.1875 136.842 7 29 84
1919235N16135 1919 26 WP MM NOT_NAMED 1919-08-30 09:00:00 NR 40.3000 138.700 main 95 0 __________O___ -1 40.3000 138.700 7 27 87
1919235N16135 1919 26 WP MM NOT_NAMED 1919-08-30 12:00:00 NR 40.3435 140.380 main 0 0 __________P___ -1 40.3435 140.380 7 24 89
1919235N16135 1919 26 WP MM NOT_NAMED 1919-08-30 15:00:00 NR 40.3312 141.907 main 8 8 __________P___ -1 40.3312 141.907 7 22 92
1919235N16135 1919 26 WP MM NOT_NAMED 1919-08-30 18:00:00 NR 40.2790 143.331 main 123 123 __________P___ -1 40.2790 143.331 7 21 94
1919235N16135 1919 26 WP MM NOT_NAMED 1919-08-30 21:00:00 NR 40.2000 144.700 main 226 __________O___ -1 40.2000 144.700 7 21 94

デジタル台風データ・検索

IBTrACS Databaseについて

本データベースは、米国NOAAが公開する1842年以降の世界の熱帯低気圧のベストトラックデータアーカイブInternational Best Track Archive for Climate Stewardship (IBTrACS)を、ウェブで閲覧しやすい形式に変換したものです。

最終更新日:2021-12-03